sensor_id;sensor_type;location;lat;lon;timestamp;P1;durP1;ratioP1;P2;durP2;ratioP2
42110;SDS011;27766;52.174;5.456;2022-11-15T00:01:14;31.92;;;21.48;;
42110;SDS011;27766;52.174;5.456;2022-11-15T00:03:44;31.50;;;20.58;;
42110;SDS011;27766;52.174;5.456;2022-11-15T00:06:12;33.90;;;20.58;;
42110;SDS011;27766;52.174;5.456;2022-11-15T00:08:39;34.72;;;20.83;;
42110;SDS011;27766;52.174;5.456;2022-11-15T00:11:06;31.55;;;21.30;;
42110;SDS011;27766;52.174;5.456;2022-11-15T00:13:33;38.65;;;20.10;;
42110;SDS011;27766;52.174;5.456;2022-11-15T00:16:01;34.35;;;21.83;;
42110;SDS011;27766;52.174;5.456;2022-11-15T00:18:29;31.30;;;20.85;;
42110;SDS011;27766;52.174;5.456;2022-11-15T00:21:02;40.83;;;21.63;;
42110;SDS011;27766;52.174;5.456;2022-11-15T00:23:33;40.55;;;21.73;;
42110;SDS011;27766;52.174;5.456;2022-11-15T00:26:00;41.70;;;23.52;;
42110;SDS011;27766;52.174;5.456;2022-11-15T00:28:28;45.55;;;22.95;;
42110;SDS011;27766;52.174;5.456;2022-11-15T00:31:05;39.90;;;24.13;;
42110;SDS011;27766;52.174;5.456;2022-11-15T00:33:33;47.78;;;25.00;;
42110;SDS011;27766;52.174;5.456;2022-11-15T00:36:04;46.97;;;25.58;;
42110;SDS011;27766;52.174;5.456;2022-11-15T00:38:34;42.13;;;23.48;;
42110;SDS011;27766;52.174;5.456;2022-11-15T00:41:03;49.63;;;26.67;;
42110;SDS011;27766;52.174;5.456;2022-11-15T00:43:35;43.08;;;25.98;;
42110;SDS011;27766;52.174;5.456;2022-11-15T00:46:03;42.95;;;24.80;;
42110;SDS011;27766;52.174;5.456;2022-11-15T00:48:30;44.45;;;25.95;;
42110;SDS011;27766;52.174;5.456;2022-11-15T00:50:58;53.47;;;27.58;;
42110;SDS011;27766;52.174;5.456;2022-11-15T00:53:25;40.63;;;25.65;;
42110;SDS011;27766;52.174;5.456;2022-11-15T00:55:53;62.45;;;28.00;;
42110;SDS011;27766;52.174;5.456;2022-11-15T00:58:20;50.67;;;28.17;;
42110;SDS011;27766;52.174;5.456;2022-11-15T01:00:47;50.47;;;26.92;;
42110;SDS011;27766;52.174;5.456;2022-11-15T01:03:14;49.83;;;27.70;;
42110;SDS011;27766;52.174;5.456;2022-11-15T01:05:41;48.13;;;26.70;;
42110;SDS011;27766;52.174;5.456;2022-11-15T01:08:12;55.92;;;27.33;;
42110;SDS011;27766;52.174;5.456;2022-11-15T01:10:40;57.45;;;28.42;;
42110;SDS011;27766;52.174;5.456;2022-11-15T01:13:07;54.03;;;27.73;;
42110;SDS011;27766;52.174;5.456;2022-11-15T01:15:38;55.25;;;28.67;;
42110;SDS011;27766;52.174;5.456;2022-11-15T01:18:06;57.47;;;28.27;;
42110;SDS011;27766;52.174;5.456;2022-11-15T01:20:33;54.22;;;28.83;;
42110;SDS011;27766;52.174;5.456;2022-11-15T01:23:00;53.25;;;29.35;;
42110;SDS011;27766;52.174;5.456;2022-11-15T01:25:27;53.40;;;28.85;;
42110;SDS011;27766;52.174;5.456;2022-11-15T01:27:55;46.63;;;28.40;;
42110;SDS011;27766;52.174;5.456;2022-11-15T01:30:22;63.20;;;30.85;;
42110;SDS011;27766;52.174;5.456;2022-11-15T01:32:49;53.72;;;29.38;;
42110;SDS011;27766;52.174;5.456;2022-11-15T01:35:16;54.08;;;27.33;;
42110;SDS011;27766;52.174;5.456;2022-11-15T01:37:43;54.78;;;28.98;;
42110;SDS011;27766;52.174;5.456;2022-11-15T01:40:10;51.10;;;28.88;;
42110;SDS011;27766;52.174;5.456;2022-11-15T01:42:37;54.00;;;28.88;;
42110;SDS011;27766;52.174;5.456;2022-11-15T01:45:04;59.75;;;29.92;;
42110;SDS011;27766;52.174;5.456;2022-11-15T01:47:35;60.30;;;28.60;;
42110;SDS011;27766;52.174;5.456;2022-11-15T01:50:10;43.17;;;26.88;;
42110;SDS011;27766;52.174;5.456;2022-11-15T01:52:41;50.78;;;28.23;;
42110;SDS011;27766;52.174;5.456;2022-11-15T01:55:19;50.35;;;29.30;;
42110;SDS011;27766;52.174;5.456;2022-11-15T01:57:49;52.55;;;29.17;;
42110;SDS011;27766;52.174;5.456;2022-11-15T02:00:19;57.30;;;31.00;;
42110;SDS011;27766;52.174;5.456;2022-11-15T02:02:46;52.22;;;29.38;;
42110;SDS011;27766;52.174;5.456;2022-11-15T02:05:14;48.92;;;29.23;;
42110;SDS011;27766;52.174;5.456;2022-11-15T02:07:41;50.08;;;27.92;;
42110;SDS011;27766;52.174;5.456;2022-11-15T02:10:10;47.50;;;28.38;;
42110;SDS011;27766;52.174;5.456;2022-11-15T02:12:40;56.45;;;30.70;;
42110;SDS011;27766;52.174;5.456;2022-11-15T02:15:08;47.85;;;28.95;;
42110;SDS011;27766;52.174;5.456;2022-11-15T02:17:58;54.55;;;29.58;;
42110;SDS011;27766;52.174;5.456;2022-11-15T02:34:13;49.63;;;29.13;;
42110;SDS011;27766;52.174;5.456;2022-11-15T02:39:38;49.83;;;28.95;;
42110;SDS011;27766;52.174;5.456;2022-11-15T02:42:19;49.03;;;29.98;;
42110;SDS011;27766;52.174;5.456;2022-11-15T02:45:11;56.85;;;30.13;;
42110;SDS011;27766;52.174;5.456;2022-11-15T02:47:48;53.45;;;29.63;;
42110;SDS011;27766;52.174;5.456;2022-11-15T02:50:20;55.00;;;29.08;;
42110;SDS011;27766;52.174;5.456;2022-11-15T02:52:51;62.50;;;30.35;;
42110;SDS011;27766;52.174;5.456;2022-11-15T02:55:25;51.38;;;29.17;;
42110;SDS011;27766;52.174;5.456;2022-11-15T02:57:57;44.05;;;29.95;;
42110;SDS011;27766;52.174;5.456;2022-11-15T03:00:47;54.72;;;31.98;;
42110;SDS011;27766;52.174;5.456;2022-11-15T03:11:49;42.58;;;29.20;;
42110;SDS011;27766;52.174;5.456;2022-11-15T03:14:28;46.92;;;30.58;;
42110;SDS011;27766;52.174;5.456;2022-11-15T03:17:04;44.53;;;28.25;;
42110;SDS011;27766;52.174;5.456;2022-11-15T03:19:50;44.22;;;29.70;;
42110;SDS011;27766;52.174;5.456;2022-11-15T03:22:21;47.38;;;30.60;;
42110;SDS011;27766;52.174;5.456;2022-11-15T03:24:54;45.70;;;31.13;;
42110;SDS011;27766;52.174;5.456;2022-11-15T03:27:26;48.10;;;31.00;;
42110;SDS011;27766;52.174;5.456;2022-11-15T03:29:59;53.10;;;31.02;;
42110;SDS011;27766;52.174;5.456;2022-11-15T03:32:31;45.45;;;28.35;;
42110;SDS011;27766;52.174;5.456;2022-11-15T03:37:35;46.15;;;30.13;;
42110;SDS011;27766;52.174;5.456;2022-11-15T03:40:07;54.75;;;31.45;;
42110;SDS011;27766;52.174;5.456;2022-11-15T03:45:20;47.08;;;27.95;;
42110;SDS011;27766;52.174;5.456;2022-11-15T03:48:01;43.65;;;29.70;;
42110;SDS011;27766;52.174;5.456;2022-11-15T03:50:35;42.97;;;29.30;;
42110;SDS011;27766;52.174;5.456;2022-11-15T03:53:03;48.53;;;30.50;;
42110;SDS011;27766;52.174;5.456;2022-11-15T03:55:31;48.92;;;30.75;;
42110;SDS011;27766;52.174;5.456;2022-11-15T03:57:59;52.10;;;31.83;;
42110;SDS011;27766;52.174;5.456;2022-11-15T04:00:27;54.28;;;31.42;;
42110;SDS011;27766;52.174;5.456;2022-11-15T04:02:55;52.60;;;31.13;;
42110;SDS011;27766;52.174;5.456;2022-11-15T04:05:22;48.75;;;30.90;;
42110;SDS011;27766;52.174;5.456;2022-11-15T04:07:50;54.55;;;30.60;;
42110;SDS011;27766;52.174;5.456;2022-11-15T04:10:17;46.22;;;29.80;;
42110;SDS011;27766;52.174;5.456;2022-11-15T04:12:45;44.42;;;30.48;;
42110;SDS011;27766;52.174;5.456;2022-11-15T04:15:16;47.17;;;31.05;;
42110;SDS011;27766;52.174;5.456;2022-11-15T04:17:49;52.00;;;30.48;;
42110;SDS011;27766;52.174;5.456;2022-11-15T04:20:19;45.90;;;31.13;;
42110;SDS011;27766;52.174;5.456;2022-11-15T04:23:14;47.03;;;29.98;;
42110;SDS011;27766;52.174;5.456;2022-11-15T04:26:02;49.10;;;30.42;;
42110;SDS011;27766;52.174;5.456;2022-11-15T04:28:31;40.55;;;29.27;;
42110;SDS011;27766;52.174;5.456;2022-11-15T04:30:58;49.88;;;28.45;;
42110;SDS011;27766;52.174;5.456;2022-11-15T04:33:25;47.30;;;29.13;;
42110;SDS011;27766;52.174;5.456;2022-11-15T04:35:52;48.90;;;31.17;;
42110;SDS011;27766;52.174;5.456;2022-11-15T04:38:38;40.40;;;29.63;;
42110;SDS011;27766;52.174;5.456;2022-11-15T04:41:06;40.33;;;29.20;;
42110;SDS011;27766;52.174;5.456;2022-11-15T04:43:33;43.67;;;29.60;;
42110;SDS011;27766;52.174;5.456;2022-11-15T04:46:00;44.97;;;30.13;;
42110;SDS011;27766;52.174;5.456;2022-11-15T04:48:27;43.38;;;28.75;;
42110;SDS011;27766;52.174;5.456;2022-11-15T04:50:54;46.92;;;30.15;;
42110;SDS011;27766;52.174;5.456;2022-11-15T04:53:21;47.75;;;29.58;;
42110;SDS011;27766;52.174;5.456;2022-11-15T04:55:48;44.05;;;29.65;;
42110;SDS011;27766;52.174;5.456;2022-11-15T04:58:15;45.08;;;28.48;;
42110;SDS011;27766;52.174;5.456;2022-11-15T05:00:42;37.35;;;27.83;;
42110;SDS011;27766;52.174;5.456;2022-11-15T05:03:10;39.40;;;27.58;;
42110;SDS011;27766;52.174;5.456;2022-11-15T05:05:57;42.00;;;27.67;;
42110;SDS011;27766;52.174;5.456;2022-11-15T05:08:24;39.25;;;27.52;;
42110;SDS011;27766;52.174;5.456;2022-11-15T05:10:51;40.05;;;28.67;;
42110;SDS011;27766;52.174;5.456;2022-11-15T05:13:18;36.78;;;27.00;;
42110;SDS011;27766;52.174;5.456;2022-11-15T05:15:46;41.63;;;27.75;;
42110;SDS011;27766;52.174;5.456;2022-11-15T05:18:13;48.53;;;28.55;;
42110;SDS011;27766;52.174;5.456;2022-11-15T05:20:47;34.38;;;26.08;;
42110;SDS011;27766;52.174;5.456;2022-11-15T05:23:14;43.05;;;29.00;;
42110;SDS011;27766;52.174;5.456;2022-11-15T05:25:42;46.10;;;31.63;;
42110;SDS011;27766;52.174;5.456;2022-11-15T05:28:09;48.40;;;30.63;;
42110;SDS011;27766;52.174;5.456;2022-11-15T05:30:36;45.10;;;30.85;;
42110;SDS011;27766;52.174;5.456;2022-11-15T05:33:03;48.47;;;32.08;;
42110;SDS011;27766;52.174;5.456;2022-11-15T05:35:34;38.95;;;29.30;;
42110;SDS011;27766;52.174;5.456;2022-11-15T05:38:06;45.78;;;28.05;;
42110;SDS011;27766;52.174;5.456;2022-11-15T05:40:33;39.10;;;29.52;;
42110;SDS011;27766;52.174;5.456;2022-11-15T05:43:01;53.78;;;35.55;;
42110;SDS011;27766;52.174;5.456;2022-11-15T05:45:31;48.33;;;29.27;;
42110;SDS011;27766;52.174;5.456;2022-11-15T05:48:00;39.38;;;29.02;;
42110;SDS011;27766;52.174;5.456;2022-11-15T05:50:31;49.33;;;30.33;;
42110;SDS011;27766;52.174;5.456;2022-11-15T05:52:58;42.92;;;30.30;;
42110;SDS011;27766;52.174;5.456;2022-11-15T05:55:31;45.00;;;30.98;;
42110;SDS011;27766;52.174;5.456;2022-11-15T05:57:58;35.90;;;27.30;;
42110;SDS011;27766;52.174;5.456;2022-11-15T06:00:26;43.80;;;29.65;;
42110;SDS011;27766;52.174;5.456;2022-11-15T06:02:53;45.00;;;30.92;;
42110;SDS011;27766;52.174;5.456;2022-11-15T06:05:20;41.85;;;29.15;;
42110;SDS011;27766;52.174;5.456;2022-11-15T06:07:47;42.72;;;27.08;;
42110;SDS011;27766;52.174;5.456;2022-11-15T06:10:14;40.15;;;27.60;;
42110;SDS011;27766;52.174;5.456;2022-11-15T06:12:41;41.65;;;26.30;;
42110;SDS011;27766;52.174;5.456;2022-11-15T06:15:08;37.30;;;27.75;;
42110;SDS011;27766;52.174;5.456;2022-11-15T06:17:35;38.28;;;28.70;;
42110;SDS011;27766;52.174;5.456;2022-11-15T06:20:03;39.67;;;29.20;;
42110;SDS011;27766;52.174;5.456;2022-11-15T06:22:30;47.35;;;28.02;;
42110;SDS011;27766;52.174;5.456;2022-11-15T06:24:57;38.22;;;27.38;;
42110;SDS011;27766;52.174;5.456;2022-11-15T06:29:57;42.58;;;28.08;;
42110;SDS011;27766;52.174;5.456;2022-11-15T06:32:24;33.17;;;26.63;;
42110;SDS011;27766;52.174;5.456;2022-11-15T06:34:51;40.60;;;25.73;;
42110;SDS011;27766;52.174;5.456;2022-11-15T06:37:18;36.65;;;26.30;;
42110;SDS011;27766;52.174;5.456;2022-11-15T06:39:45;38.60;;;28.13;;
42110;SDS011;27766;52.174;5.456;2022-11-15T06:42:12;33.95;;;26.55;;
42110;SDS011;27766;52.174;5.456;2022-11-15T06:44:40;40.67;;;27.42;;
42110;SDS011;27766;52.174;5.456;2022-11-15T06:47:07;38.45;;;26.27;;
42110;SDS011;27766;52.174;5.456;2022-11-15T06:49:34;37.28;;;26.67;;
42110;SDS011;27766;52.174;5.456;2022-11-15T06:52:01;40.85;;;25.17;;
42110;SDS011;27766;52.174;5.456;2022-11-15T06:54:28;34.60;;;25.15;;
42110;SDS011;27766;52.174;5.456;2022-11-15T06:56:55;35.17;;;25.00;;
42110;SDS011;27766;52.174;5.456;2022-11-15T06:59:22;31.45;;;25.35;;
42110;SDS011;27766;52.174;5.456;2022-11-15T07:01:49;37.42;;;26.08;;
42110;SDS011;27766;52.174;5.456;2022-11-15T07:04:16;38.78;;;25.23;;
42110;SDS011;27766;52.174;5.456;2022-11-15T07:06:45;39.33;;;25.88;;
42110;SDS011;27766;52.174;5.456;2022-11-15T07:09:14;34.97;;;24.30;;
42110;SDS011;27766;52.174;5.456;2022-11-15T07:11:41;35.25;;;24.38;;
42110;SDS011;27766;52.174;5.456;2022-11-15T07:14:08;35.00;;;24.48;;
42110;SDS011;27766;52.174;5.456;2022-11-15T07:16:38;36.38;;;23.00;;
42110;SDS011;27766;52.174;5.456;2022-11-15T07:19:05;34.55;;;24.45;;
42110;SDS011;27766;52.174;5.456;2022-11-15T07:21:32;37.08;;;24.50;;
42110;SDS011;27766;52.174;5.456;2022-11-15T07:23:59;33.03;;;23.88;;
42110;SDS011;27766;52.174;5.456;2022-11-15T07:26:26;33.35;;;23.27;;
42110;SDS011;27766;52.174;5.456;2022-11-15T07:28:53;33.53;;;25.30;;
42110;SDS011;27766;52.174;5.456;2022-11-15T07:31:21;36.05;;;23.80;;
42110;SDS011;27766;52.174;5.456;2022-11-15T07:33:49;37.10;;;24.30;;
42110;SDS011;27766;52.174;5.456;2022-11-15T07:36:16;29.38;;;23.40;;
42110;SDS011;27766;52.174;5.456;2022-11-15T07:38:43;34.33;;;23.40;;
42110;SDS011;27766;52.174;5.456;2022-11-15T07:41:10;33.47;;;23.40;;
42110;SDS011;27766;52.174;5.456;2022-11-15T07:43:37;32.13;;;23.13;;
42110;SDS011;27766;52.174;5.456;2022-11-15T07:46:05;30.40;;;21.27;;
42110;SDS011;27766;52.174;5.456;2022-11-15T07:48:36;30.33;;;21.35;;
42110;SDS011;27766;52.174;5.456;2022-11-15T07:51:12;31.27;;;21.73;;
42110;SDS011;27766;52.174;5.456;2022-11-15T07:53:41;30.75;;;21.63;;
42110;SDS011;27766;52.174;5.456;2022-11-15T07:56:10;31.63;;;22.13;;
42110;SDS011;27766;52.174;5.456;2022-11-15T07:58:37;33.60;;;19.98;;
42110;SDS011;27766;52.174;5.456;2022-11-15T08:01:05;29.13;;;20.75;;
42110;SDS011;27766;52.174;5.456;2022-11-15T08:03:33;32.25;;;21.88;;
42110;SDS011;27766;52.174;5.456;2022-11-15T08:06:01;34.90;;;22.83;;
42110;SDS011;27766;52.174;5.456;2022-11-15T08:08:28;35.10;;;20.77;;
42110;SDS011;27766;52.174;5.456;2022-11-15T08:10:57;31.83;;;20.77;;
42110;SDS011;27766;52.174;5.456;2022-11-15T08:13:25;30.42;;;20.52;;
42110;SDS011;27766;52.174;5.456;2022-11-15T08:15:56;26.63;;;18.75;;
42110;SDS011;27766;52.174;5.456;2022-11-15T08:18:27;27.00;;;20.05;;
42110;SDS011;27766;52.174;5.456;2022-11-15T08:20:57;24.27;;;18.75;;
42110;SDS011;27766;52.174;5.456;2022-11-15T08:23:25;27.92;;;18.73;;
42110;SDS011;27766;52.174;5.456;2022-11-15T08:25:52;23.05;;;18.02;;
42110;SDS011;27766;52.174;5.456;2022-11-15T08:28:25;25.45;;;19.08;;
42110;SDS011;27766;52.174;5.456;2022-11-15T08:30:52;23.90;;;19.23;;
42110;SDS011;27766;52.174;5.456;2022-11-15T08:33:19;30.30;;;19.83;;
42110;SDS011;27766;52.174;5.456;2022-11-15T08:35:46;26.15;;;18.83;;
42110;SDS011;27766;52.174;5.456;2022-11-15T08:38:13;26.08;;;18.00;;
42110;SDS011;27766;52.174;5.456;2022-11-15T08:40:41;23.17;;;18.70;;
42110;SDS011;27766;52.174;5.456;2022-11-15T08:43:08;24.70;;;17.33;;
42110;SDS011;27766;52.174;5.456;2022-11-15T08:45:35;20.70;;;16.42;;
42110;SDS011;27766;52.174;5.456;2022-11-15T08:48:03;22.77;;;16.63;;
42110;SDS011;27766;52.174;5.456;2022-11-15T08:50:30;22.45;;;17.38;;
42110;SDS011;27766;52.174;5.456;2022-11-15T08:52:57;22.10;;;16.67;;
42110;SDS011;27766;52.174;5.456;2022-11-15T08:55:24;27.73;;;18.75;;
42110;SDS011;27766;52.174;5.456;2022-11-15T08:57:51;25.00;;;17.42;;
42110;SDS011;27766;52.174;5.456;2022-11-15T09:00:18;24.58;;;17.58;;
42110;SDS011;27766;52.174;5.456;2022-11-15T09:02:46;22.77;;;17.33;;
42110;SDS011;27766;52.174;5.456;2022-11-15T09:05:13;21.08;;;16.90;;
42110;SDS011;27766;52.174;5.456;2022-11-15T09:07:42;25.33;;;16.48;;
42110;SDS011;27766;52.174;5.456;2022-11-15T09:10:10;20.23;;;15.32;;
42110;SDS011;27766;52.174;5.456;2022-11-15T09:12:37;19.30;;;16.05;;
42110;SDS011;27766;52.174;5.456;2022-11-15T09:15:05;22.83;;;16.98;;
42110;SDS011;27766;52.174;5.456;2022-11-15T09:17:33;24.52;;;16.27;;
42110;SDS011;27766;52.174;5.456;2022-11-15T09:20:00;18.98;;;14.90;;
42110;SDS011;27766;52.174;5.456;2022-11-15T09:22:27;17.05;;;13.65;;
42110;SDS011;27766;52.174;5.456;2022-11-15T09:24:55;22.17;;;14.70;;
42110;SDS011;27766;52.174;5.456;2022-11-15T09:27:22;19.13;;;14.00;;
42110;SDS011;27766;52.174;5.456;2022-11-15T09:29:49;18.63;;;13.15;;
42110;SDS011;27766;52.174;5.456;2022-11-15T09:32:16;19.42;;;13.85;;
42110;SDS011;27766;52.174;5.456;2022-11-15T09:34:43;15.05;;;11.20;;
42110;SDS011;27766;52.174;5.456;2022-11-15T09:37:10;17.90;;;11.75;;
42110;SDS011;27766;52.174;5.456;2022-11-15T09:39:38;16.80;;;11.57;;
42110;SDS011;27766;52.174;5.456;2022-11-15T09:50:07;10.98;;;8.82;;
42110;SDS011;27766;52.174;5.456;2022-11-15T09:52:36;11.55;;;8.82;;
42110;SDS011;27766;52.174;5.456;2022-11-15T09:55:11;12.15;;;8.00;;
42110;SDS011;27766;52.174;5.456;2022-11-15T09:57:53;15.85;;;8.50;;
42110;SDS011;27766;52.174;5.456;2022-11-15T10:03:23;11.65;;;7.45;;
42110;SDS011;27766;52.174;5.456;2022-11-15T10:05:55;10.93;;;7.25;;
42110;SDS011;27766;52.174;5.456;2022-11-15T10:11:44;10.27;;;7.97;;
42110;SDS011;27766;52.174;5.456;2022-11-15T10:14:16;8.32;;;7.45;;
42110;SDS011;27766;52.174;5.456;2022-11-15T10:19:22;10.90;;;8.03;;
42110;SDS011;27766;52.174;5.456;2022-11-15T10:22:00;10.65;;;7.03;;
42110;SDS011;27766;52.174;5.456;2022-11-15T10:24:42;10.68;;;7.22;;
42110;SDS011;27766;52.174;5.456;2022-11-15T10:27:11;9.45;;;6.72;;
42110;SDS011;27766;52.174;5.456;2022-11-15T10:29:47;9.43;;;6.05;;
42110;SDS011;27766;52.174;5.456;2022-11-15T10:32:19;11.63;;;5.03;;
42110;SDS011;27766;52.174;5.456;2022-11-15T10:34:48;7.00;;;5.60;;
42110;SDS011;27766;52.174;5.456;2022-11-15T10:37:27;12.25;;;5.80;;
42110;SDS011;27766;52.174;5.456;2022-11-15T10:40:05;7.20;;;4.60;;
42110;SDS011;27766;52.174;5.456;2022-11-15T10:42:41;9.63;;;4.43;;
42110;SDS011;27766;52.174;5.456;2022-11-15T10:45:22;6.95;;;4.03;;
42110;SDS011;27766;52.174;5.456;2022-11-15T10:48:14;6.28;;;3.78;;
42110;SDS011;27766;52.174;5.456;2022-11-15T10:50:47;4.72;;;3.45;;
42110;SDS011;27766;52.174;5.456;2022-11-15T10:56:05;5.07;;;3.70;;
42110;SDS011;27766;52.174;5.456;2022-11-15T10:58:37;6.45;;;3.40;;
42110;SDS011;27766;52.174;5.456;2022-11-15T11:01:10;4.30;;;2.75;;
42110;SDS011;27766;52.174;5.456;2022-11-15T11:03:39;8.07;;;3.10;;
42110;SDS011;27766;52.174;5.456;2022-11-15T11:06:09;4.32;;;2.95;;
42110;SDS011;27766;52.174;5.456;2022-11-15T11:08:54;4.50;;;3.08;;
42110;SDS011;27766;52.174;5.456;2022-11-15T11:11:21;3.13;;;2.63;;
42110;SDS011;27766;52.174;5.456;2022-11-15T11:13:48;3.10;;;2.40;;
42110;SDS011;27766;52.174;5.456;2022-11-15T11:16:41;2.53;;;1.83;;
42110;SDS011;27766;52.174;5.456;2022-11-15T11:19:28;4.35;;;2.17;;
42110;SDS011;27766;52.174;5.456;2022-11-15T11:32:59;2.75;;;1.48;;
42110;SDS011;27766;52.174;5.456;2022-11-15T11:38:34;2.80;;;2.10;;
42110;SDS011;27766;52.174;5.456;2022-11-15T11:49:37;3.65;;;2.20;;
42110;SDS011;27766;52.174;5.456;2022-11-15T11:52:13;2.85;;;2.20;;
42110;SDS011;27766;52.174;5.456;2022-11-15T11:55:05;3.58;;;2.22;;
42110;SDS011;27766;52.174;5.456;2022-11-15T12:00:41;3.90;;;1.92;;
42110;SDS011;27766;52.174;5.456;2022-11-15T12:06:17;2.45;;;1.75;;
42110;SDS011;27766;52.174;5.456;2022-11-15T12:14:36;2.78;;;1.60;;
42110;SDS011;27766;52.174;5.456;2022-11-15T12:17:08;4.13;;;1.50;;
42110;SDS011;27766;52.174;5.456;2022-11-15T12:19:37;2.10;;;1.48;;
42110;SDS011;27766;52.174;5.456;2022-11-15T12:22:08;10.45;;;1.98;;
42110;SDS011;27766;52.174;5.456;2022-11-15T12:24:45;4.45;;;1.92;;
42110;SDS011;27766;52.174;5.456;2022-11-15T12:27:29;6.50;;;1.88;;
42110;SDS011;27766;52.174;5.456;2022-11-15T12:30:16;2.08;;;1.20;;
42110;SDS011;27766;52.174;5.456;2022-11-15T12:32:50;5.57;;;1.73;;
42110;SDS011;27766;52.174;5.456;2022-11-15T12:35:23;4.68;;;1.58;;
42110;SDS011;27766;52.174;5.456;2022-11-15T12:38:00;5.57;;;1.40;;
42110;SDS011;27766;52.174;5.456;2022-11-15T12:40:29;3.58;;;1.20;;
42110;SDS011;27766;52.174;5.456;2022-11-15T12:45:40;2.45;;;1.15;;
42110;SDS011;27766;52.174;5.456;2022-11-15T12:56:08;1.85;;;1.15;;
42110;SDS011;27766;52.174;5.456;2022-11-15T13:17:11;3.17;;;1.30;;
42110;SDS011;27766;52.174;5.456;2022-11-15T13:19:46;3.85;;;1.40;;
42110;SDS011;27766;52.174;5.456;2022-11-15T13:22:14;4.90;;;1.52;;
42110;SDS011;27766;52.174;5.456;2022-11-15T13:25:03;2.53;;;1.10;;
42110;SDS011;27766;52.174;5.456;2022-11-15T13:27:30;2.65;;;1.30;;
42110;SDS011;27766;52.174;5.456;2022-11-15T13:29:57;5.25;;;1.40;;
42110;SDS011;27766;52.174;5.456;2022-11-15T13:32:25;3.95;;;1.60;;
42110;SDS011;27766;52.174;5.456;2022-11-15T13:34:52;10.10;;;1.90;;
42110;SDS011;27766;52.174;5.456;2022-11-15T13:39:47;2.03;;;1.10;;
42110;SDS011;27766;52.174;5.456;2022-11-15T13:42:15;2.45;;;1.10;;
42110;SDS011;27766;52.174;5.456;2022-11-15T13:44:56;2.17;;;1.25;;
42110;SDS011;27766;52.174;5.456;2022-11-15T13:47:27;5.20;;;2.03;;
42110;SDS011;27766;52.174;5.456;2022-11-15T13:49:58;2.80;;;1.30;;
42110;SDS011;27766;52.174;5.456;2022-11-15T13:52:30;5.88;;;1.67;;
42110;SDS011;27766;52.174;5.456;2022-11-15T13:55:13;2.47;;;1.20;;
42110;SDS011;27766;52.174;5.456;2022-11-15T13:57:48;2.45;;;1.25;;
42110;SDS011;27766;52.174;5.456;2022-11-15T14:00:40;2.65;;;1.23;;
42110;SDS011;27766;52.174;5.456;2022-11-15T14:03:19;4.68;;;1.20;;
42110;SDS011;27766;52.174;5.456;2022-11-15T14:08:40;2.72;;;1.00;;
42110;SDS011;27766;52.174;5.456;2022-11-15T14:11:25;5.15;;;1.35;;
42110;SDS011;27766;52.174;5.456;2022-11-15T14:14:01;2.40;;;1.08;;
42110;SDS011;27766;52.174;5.456;2022-11-15T14:16:36;4.57;;;1.63;;
42110;SDS011;27766;52.174;5.456;2022-11-15T14:19:06;1.88;;;1.00;;
42110;SDS011;27766;52.174;5.456;2022-11-15T14:21:37;2.45;;;1.23;;
42110;SDS011;27766;52.174;5.456;2022-11-15T14:24:20;1.25;;;0.82;;
42110;SDS011;27766;52.174;5.456;2022-11-15T14:26:48;3.38;;;0.90;;
42110;SDS011;27766;52.174;5.456;2022-11-15T14:29:28;2.58;;;1.27;;
42110;SDS011;27766;52.174;5.456;2022-11-15T14:32:18;4.97;;;1.65;;
42110;SDS011;27766;52.174;5.456;2022-11-15T14:34:54;3.00;;;1.08;;
42110;SDS011;27766;52.174;5.456;2022-11-15T14:37:26;4.00;;;1.92;;
42110;SDS011;27766;52.174;5.456;2022-11-15T14:39:59;2.30;;;1.10;;
42110;SDS011;27766;52.174;5.456;2022-11-15T14:42:31;2.50;;;1.67;;
42110;SDS011;27766;52.174;5.456;2022-11-15T14:44:58;5.93;;;1.23;;
42110;SDS011;27766;52.174;5.456;2022-11-15T14:47:25;3.40;;;1.52;;
42110;SDS011;27766;52.174;5.456;2022-11-15T14:49:52;5.97;;;1.25;;
42110;SDS011;27766;52.174;5.456;2022-11-15T14:52:29;3.50;;;1.20;;
42110;SDS011;27766;52.174;5.456;2022-11-15T14:55:00;4.60;;;1.48;;
42110;SDS011;27766;52.174;5.456;2022-11-15T14:57:37;5.35;;;1.60;;
42110;SDS011;27766;52.174;5.456;2022-11-15T15:00:04;4.22;;;1.50;;
42110;SDS011;27766;52.174;5.456;2022-11-15T15:02:31;6.90;;;1.60;;
42110;SDS011;27766;52.174;5.456;2022-11-15T15:04:58;2.65;;;1.25;;
42110;SDS011;27766;52.174;5.456;2022-11-15T15:07:27;2.45;;;1.13;;
42110;SDS011;27766;52.174;5.456;2022-11-15T15:09:55;3.70;;;1.40;;
42110;SDS011;27766;52.174;5.456;2022-11-15T15:12:42;2.58;;;0.88;;
42110;SDS011;27766;52.174;5.456;2022-11-15T15:15:16;5.70;;;1.80;;
42110;SDS011;27766;52.174;5.456;2022-11-15T15:17:48;4.95;;;1.08;;
42110;SDS011;27766;52.174;5.456;2022-11-15T15:20:15;4.07;;;1.30;;
42110;SDS011;27766;52.174;5.456;2022-11-15T15:22:43;3.17;;;1.40;;
42110;SDS011;27766;52.174;5.456;2022-11-15T15:25:18;1.55;;;0.95;;
42110;SDS011;27766;52.174;5.456;2022-11-15T15:27:58;4.10;;;1.10;;
42110;SDS011;27766;52.174;5.456;2022-11-15T15:30:27;2.30;;;1.02;;
42110;SDS011;27766;52.174;5.456;2022-11-15T15:32:55;1.20;;;0.82;;
42110;SDS011;27766;52.174;5.456;2022-11-15T15:35:23;3.00;;;1.35;;
42110;SDS011;27766;52.174;5.456;2022-11-15T15:37:55;2.58;;;1.08;;
42110;SDS011;27766;52.174;5.456;2022-11-15T15:40:22;2.95;;;1.40;;
42110;SDS011;27766;52.174;5.456;2022-11-15T15:42:50;3.08;;;0.95;;
42110;SDS011;27766;52.174;5.456;2022-11-15T15:45:18;1.67;;;1.05;;
42110;SDS011;27766;52.174;5.456;2022-11-15T15:47:45;1.25;;;1.00;;
42110;SDS011;27766;52.174;5.456;2022-11-15T15:52:57;6.30;;;1.40;;
42110;SDS011;27766;52.174;5.456;2022-11-15T15:55:25;3.42;;;1.67;;
42110;SDS011;27766;52.174;5.456;2022-11-15T15:57:53;1.83;;;1.00;;
42110;SDS011;27766;52.174;5.456;2022-11-15T16:00:21;2.95;;;1.17;;
42110;SDS011;27766;52.174;5.456;2022-11-15T16:02:52;1.35;;;0.85;;
42110;SDS011;27766;52.174;5.456;2022-11-15T16:05:20;3.38;;;1.30;;
42110;SDS011;27766;52.174;5.456;2022-11-15T16:07:48;6.35;;;1.58;;
42110;SDS011;27766;52.174;5.456;2022-11-15T16:10:29;2.15;;;1.20;;
42110;SDS011;27766;52.174;5.456;2022-11-15T16:12:57;3.58;;;1.10;;
42110;SDS011;27766;52.174;5.456;2022-11-15T16:15:26;1.52;;;1.13;;
42110;SDS011;27766;52.174;5.456;2022-11-15T16:17:57;1.98;;;0.98;;
42110;SDS011;27766;52.174;5.456;2022-11-15T16:20:38;8.73;;;1.20;;
42110;SDS011;27766;52.174;5.456;2022-11-15T16:23:09;3.47;;;1.30;;
42110;SDS011;27766;52.174;5.456;2022-11-15T16:25:40;2.50;;;1.30;;
42110;SDS011;27766;52.174;5.456;2022-11-15T16:28:21;2.72;;;1.25;;
42110;SDS011;27766;52.174;5.456;2022-11-15T16:31:02;4.28;;;1.65;;
42110;SDS011;27766;52.174;5.456;2022-11-15T16:33:32;2.25;;;1.40;;
42110;SDS011;27766;52.174;5.456;2022-11-15T16:36:00;5.38;;;1.60;;
42110;SDS011;27766;52.174;5.456;2022-11-15T16:38:29;3.58;;;1.38;;
42110;SDS011;27766;52.174;5.456;2022-11-15T16:40:56;3.70;;;1.25;;
42110;SDS011;27766;52.174;5.456;2022-11-15T16:43:23;4.05;;;1.30;;
42110;SDS011;27766;52.174;5.456;2022-11-15T16:45:50;3.38;;;1.75;;
42110;SDS011;27766;52.174;5.456;2022-11-15T16:48:24;3.78;;;2.03;;
42110;SDS011;27766;52.174;5.456;2022-11-15T16:50:56;4.18;;;1.40;;
42110;SDS011;27766;52.174;5.456;2022-11-15T16:53:24;3.55;;;1.75;;
42110;SDS011;27766;52.174;5.456;2022-11-15T16:55:53;7.03;;;1.88;;